Current | Forecast
Updated: 9:00 PM CET on February 22, 2018
Observed at Asturias, Spain
Temperature 6°C
Windchill 3°C
Humidity 70%
Dew Point 1°C
Wind East at 13 km/h
Pressure 1013 hPa (Steady)
Conditions Partly Cloudy
Visibility 10.0 kilometers
UV 0 out of 16
Clouds (FEW) : 670 m
Yesterday's Maximum 10°C
Yesterday's Minimum 6°C approx.
Yesterday's Heating Degree Days 19 approx.
Sunrise8:11 AM CET
Sunset7:03 PM CET
Moon Rise11:48 AM CET
Moon Set1:01 AM CET
Moon PhaseMoon Phase
Waxing Crescent
Raw METARMETAR LEAS 222000Z 10007KT 080V140 9999 FEW022 06/01 Q1013 NOSIG


Monday
. High: 69° F.
Tuesday
. High: 75° F.
Wednesday
. High: 60° F.
Thursday
. High: 62° F.
Friday
. High: 73° F.
Saturday
. High: 69° F.
Sunday
. High: 64° F.
Monday
. High: 77° F.

Click here for Marine Information
Scientific forecaster discussion (NWS)

Units: English | Metric

Find the Weather for any City, State or Zipcode, or Country:

U.S. State List | Severe Weather | Tropical Storms | Ski Conditions
United States | Canada | Central America | South America | Asia | Europe | Australia | Africa | Islands

Weather Underground

© Copyright 2018
The Weather Company, LLC